^^
Your Local Weather - Clay, NY Station Historical Data
 
Daily Summary for February 17, 2019 Units:  English    Metric   Both
« Previous Day
Next Day »
Daily Weekly Monthly Yearly Custom
  Current: High: Low: Average:
Temperature: 8.2 °F 18.7 °F 8.2 °F 13.3 °F
Dew Point: 4.6 °F 14.1 °F 4.6 °F 9.2 °F
Humidity: 85% 85% 81% 83%
Wind Speed: 0.0mph 2.0mph 0.0mph 0.2mph
Wind Gust: 0.0mph 3.0mph - -
WindCalm - - West
Pressure: 30.13 in 30.13 in 30.08 in -
Precipitation: 0.00 in      
Historical Graphs
 
 
Tabular Data for February 17, 2019
Time Temperature Dew Point Pressure Wind Wind Speed Wind Gust Humidity Rainfall Rate (Hourly) solar
00:04 18.7 °F 14.1 °F 30.08 in Calm     82% 0.00 in 0.00 W/m2
00:10 18.5 °F 13.6 °F 30.08 in Calm     81% 0.00 in 0.00 W/m2
00:14 18.4 °F 13.5 °F 30.08 in Calm     81% 0.00 in 0.00 W/m2
00:20 18.2 °F 13.3 °F 30.09 in Calm     81% 0.00 in 0.00 W/m2
00:24 18.0 °F 13.2 °F 30.09 in Calm     81% 0.00 in 0.00 W/m2
00:30 17.8 °F 13.0 °F 30.09 in Calm     81% 0.00 in 0.00 W/m2
00:34 17.6 °F 12.8 °F 30.09 in Calm     81% 0.00 in 0.00 W/m2
00:40 17.4 °F 12.6 °F 30.09 in Calm     81% 0.00 in 0.00 W/m2
00:44 17.4 °F 12.8 °F 30.09 in Calm     82% 0.00 in 0.00 W/m2
00:50 17.2 °F 12.6 °F 30.08 in Calm     82% 0.00 in 0.00 W/m2
00:54 17.0 °F 12.5 °F 30.08 in Calm     82% 0.00 in 0.00 W/m2
00:58 16.9 °F 12.4 °F 30.08 in Calm     82% 0.00 in 0.00 W/m2
01:04 16.6 °F 12.1 °F 30.08 in Calm     82% 0.00 in 0.00 W/m2
01:08 16.4 °F 11.9 °F 30.08 in Calm     82% 0.00 in 0.00 W/m2
01:14 16.2 °F 11.9 °F 30.08 in Calm     83% 0.00 in 0.00 W/m2
01:18 15.9 °F 11.4 °F 30.09 in Calm     82% 0.00 in 0.00 W/m2
01:24 15.7 °F 11.5 °F 30.08 in Calm     83% 0.00 in 0.00 W/m2
01:28 15.6 °F 11.4 °F 30.09 in Calm     83% 0.00 in 0.00 W/m2
01:34 15.3 °F 11.1 °F 30.09 in Calm     83% 0.00 in 0.00 W/m2
01:38 15.2 °F 11.0 °F 30.09 in Calm   1.0 mph 83% 0.00 in 0.00 W/m2
01:44 15.2 °F 11.2 °F 30.09 in NNW 1.0 mph 3.0 mph 84% 0.00 in 0.00 W/m2
01:48 15.5 °F 11.5 °F 30.09 in NNW 1.0 mph 3.0 mph 84% 0.00 in 0.00 W/m2
01:54 15.5 °F 11.5 °F 30.09 in North 2.0 mph 3.0 mph 84% 0.00 in 0.00 W/m2
01:58 15.3 °F 11.1 °F 30.09 in North 1.0 mph 3.0 mph 83% 0.00 in 0.00 W/m2
02:04 15.1 °F 10.9 °F 30.09 in NNW 1.0 mph 1.0 mph 83% 0.00 in 0.00 W/m2
02:08 14.8 °F 10.6 °F 30.09 in NNW 1.0 mph 1.0 mph 83% 0.00 in 0.00 W/m2
02:14 14.5 °F 10.5 °F 30.09 in NNW 1.0 mph 1.0 mph 84% 0.00 in 0.00 W/m2
02:18 14.4 °F 10.4 °F 30.10 in Calm   1.0 mph 84% 0.00 in 0.00 W/m2
02:24 14.2 °F 10.3 °F 30.10 in Calm     84% 0.00 in 0.00 W/m2
02:28 14.1 °F 9.9 °F 30.10 in Calm   2.0 mph 83% 0.00 in 0.00 W/m2
02:34 13.9 °F 10.0 °F 30.10 in NNW 1.0 mph 2.0 mph 84% 0.00 in 0.00 W/m2
02:38 13.8 °F 9.6 °F 30.10 in NNW 1.0 mph 2.0 mph 83% 0.00 in 0.00 W/m2
02:44 13.7 °F 9.5 °F 30.11 in Calm   2.0 mph 83% 0.00 in 0.00 W/m2
02:48 13.5 °F 9.3 °F 30.11 in Calm   2.0 mph 83% 0.00 in 0.00 W/m2
02:54 13.1 °F 8.9 °F 30.11 in Calm     83% 0.00 in 0.00 W/m2
02:58 12.9 °F 8.7 °F 30.11 in Calm     83% 0.00 in 0.00 W/m2
03:04 12.6 °F 8.4 °F 30.11 in Calm     83% 0.00 in 0.00 W/m2
03:08 12.4 °F 8.2 °F 30.11 in Calm   2.0 mph 83% 0.00 in 0.00 W/m2
03:14 12.1 °F 7.9 °F 30.11 in Calm     83% 0.00 in 0.00 W/m2
03:18 12.0 °F 7.8 °F 30.11 in Calm     83% 0.00 in 0.00 W/m2
03:24 11.7 °F 7.5 °F 30.11 in Calm     83% 0.00 in 0.00 W/m2
03:28 11.5 °F 7.3 °F 30.11 in Calm     83% 0.00 in 0.00 W/m2
03:34 11.3 °F 7.1 °F 30.11 in Calm     83% 0.00 in 0.00 W/m2
03:38 11.1 °F 6.9 °F 30.11 in Calm     83% 0.00 in 0.00 W/m2
03:44 10.9 °F 7.0 °F 30.11 in Calm     84% 0.00 in 0.00 W/m2
03:48 10.7 °F 6.8 °F 30.11 in Calm     84% 0.00 in 0.00 W/m2
03:54 10.6 °F 6.7 °F 30.11 in Calm     84% 0.00 in 0.00 W/m2
03:58 10.4 °F 6.5 °F 30.11 in Calm     84% 0.00 in 0.00 W/m2
04:04 10.4 °F 6.5 °F 30.11 in Calm     84% 0.00 in 0.00 W/m2
04:08 10.1 °F 6.2 °F 30.11 in Calm     84% 0.00 in 0.00 W/m2
04:14 9.9 °F 6.0 °F 30.11 in Calm     84% 0.00 in 0.00 W/m2
04:18 9.8 °F 5.9 °F 30.11 in Calm     84% 0.00 in 0.00 W/m2
04:24 9.6 °F 5.7 °F 30.12 in Calm     84% 0.00 in 0.00 W/m2
04:28 9.4 °F 5.5 °F 30.12 in Calm     84% 0.00 in 0.00 W/m2
04:34 9.2 °F 5.3 °F 30.12 in Calm     84% 0.00 in 0.00 W/m2
04:38 9.0 °F 5.4 °F 30.12 in Calm     85% 0.00 in 0.00 W/m2
04:44 8.8 °F 5.2 °F 30.12 in Calm     85% 0.00 in 0.00 W/m2
04:48 8.7 °F 5.1 °F 30.13 in Calm     85% 0.00 in 0.00 W/m2
04:54 8.5 °F 4.9 °F 30.13 in Calm     85% 0.00 in 0.00 W/m2
04:58 8.5 °F 4.9 °F 30.13 in Calm     85% 0.00 in 0.00 W/m2
05:04 8.6 °F 5.0 °F 30.13 in Calm     85% 0.00 in 0.00 W/m2
05:08 8.4 °F 4.8 °F 30.13 in Calm     85% 0.00 in 0.00 W/m2
05:14 8.3 °F 4.7 °F 30.13 in Calm     85% 0.00 in 0.00 W/m2
05:18 8.2 °F 4.6 °F 30.13 in Calm     85% 0.00 in 0.00 W/m2
Country Meadow, Clay, NY, USA
Compliments of Weather Underground - 2 mb